Terminal Aerodrome Forecast
Issued by NWS Wilmington, OH

Current Version | Previous Version | Graphics & Text | Print | Product List | Glossary On
Versions: 1 2 3 4 5 6 7 8 9 10 11 12 13 14 15 16 17 18 19 20 21 22 23 24
000
FTUS41 KILN 081540 AAB
TAFCMH
TAF AMD
KCMH 081540Z 0816/0912 35005KT 3SM -SN SCT006 OVC025
     FM081630 27008KT P6SM VCSH SCT015 OVC025
     FM081900 27008KT 5SM -RASN SCT015 BKN025
     FM090800 27010KT 5SM -SN BR SCT007 OVC012=

USA.gov is the U.S. government's official web portal to all federal, state and local government web resources and services.